Time;durP1;ratioP1;P1;durP2;ratioP2;P2;SDS_P1;SDS_P2;PMS_P1;PMS_P2;Temp;Humidity;BMP_temperature;BMP_pressure;BME280_temperature;BME280_humidity;BME280_pressure;Samples;Min_cycle;Max_cycle;Signal;HPM_P1;HPM_P2
2022/08/11 00:01:18;;;;;;;1999.90;999.90;;;;;;;22.18;39.80;95810.75;5059814;28;20107;-69
2022/08/11 00:03:52;;;;;;;1999.90;999.90;;;;;;;22.21;39.68;95810.00;5069416;28;20024;-70
2022/08/11 00:06:39;;;;;;;1999.90;999.90;;;;;;;22.11;41.17;95817.97;5064785;28;20032;-70
2022/08/11 00:09:11;;;;;;;1999.90;999.90;;;;;;;22.07;40.56;95826.03;5066913;28;20025;-70
2022/08/11 00:11:44;;;;;;;1999.90;999.90;;;;;;;22.17;40.08;95808.41;5058823;28;20033;-69
2022/08/11 00:14:19;;;;;;;1999.90;999.90;;;;;;;22.16;40.02;95814.97;5058061;28;20397;-70
2022/08/11 00:17:03;;;;;;;1999.90;999.90;;;;;;;22.21;39.70;95815.44;5049801;28;20059;-70
2022/08/11 00:19:34;;;;;;;1999.90;999.90;;;;;;;21.74;41.29;95813.81;5051891;28;20036;-72
2022/08/11 00:22:02;;;;;;;1999.90;999.90;;;;;;;21.95;40.14;95813.41;5064727;28;20485;-70
2022/08/11 00:24:39;;;;;;;1999.90;999.90;;;;;;;21.87;40.70;95829.94;5060927;28;20037;-70
2022/08/11 00:27:05;;;;;;;1999.90;999.90;;;;;;;21.78;40.22;95811.97;5050970;28;20090;-70
2022/08/11 00:29:31;;;;;;;1999.90;999.90;;;;;;;21.82;40.68;95832.94;5063868;28;20127;-70
2022/08/11 00:32:00;;;;;;;1999.90;999.90;;;;;;;21.74;40.69;95830.06;5050947;28;20057;-70
2022/08/11 00:34:28;;;;;;;1999.90;999.90;;;;;;;21.75;40.79;95831.66;5050773;28;20071;-70
2022/08/11 00:37:02;;;;;;;1999.90;999.90;;;;;;;21.61;41.53;95819.78;5060966;28;20384;-69
2022/08/11 00:39:31;;;;;;;1999.90;999.90;;;;;;;21.61;41.01;95819.78;5069296;28;20123;-70
2022/08/11 00:42:15;;;;;;;1999.90;999.90;;;;;;;21.51;41.68;95831.97;5050740;28;20037;-69
2022/08/11 00:45:07;;;;;;;1999.90;999.90;;;;;;;21.55;41.63;95824.69;5051327;28;20036;-71
2022/08/11 00:47:54;;;;;;;1999.90;999.90;;;;;;;21.39;41.72;95835.56;5050145;28;20036;-70
2022/08/11 00:50:22;;;;;;;1999.90;999.90;;;;;;;21.58;41.76;95832.09;5050773;28;20110;-69
2022/08/11 00:53:22;;;;;;;1999.90;999.90;;;;;;;21.47;41.70;95825.69;5050333;28;20163;-70
2022/08/11 00:56:02;;;;;;;1999.90;999.90;;;;;;;21.21;42.61;95834.41;5048757;28;20029;-70
2022/08/11 00:59:15;;;;;;;1999.90;999.90;;;;;;;21.34;42.32;95832.38;5053525;28;20060;-69
2022/08/11 01:02:15;;;;;;;1999.90;999.90;;;;;;;21.41;41.83;95827.91;5046275;28;20047;-69
2022/08/11 01:05:13;;;;;;;1999.90;999.90;;;;;;;21.28;42.13;95812.91;5058533;28;20474;-70
2022/08/11 01:08:15;;;;;;;1999.90;999.90;;;;;;;21.24;42.96;95812.84;5048993;28;20047;-69
2022/08/11 01:10:48;;;;;;;1999.90;999.90;;;;;;;21.09;42.69;95800.19;5059784;28;20077;-69
2022/08/11 01:13:35;;;;;;;1999.90;999.90;;;;;;;21.16;42.29;95811.13;5061513;28;20078;-70
2022/08/11 01:16:33;;;;;;;1999.90;999.90;;;;;;;21.16;42.45;95804.94;5053424;28;20081;-70
2022/08/11 01:19:27;;;;;;;1999.90;999.90;;;;;;;21.03;43.22;95818.59;5048191;28;20029;-70
2022/08/11 01:22:14;;;;;;;1999.90;999.90;;;;;;;20.99;42.89;95820.44;5050188;28;20078;-70
2022/08/11 01:25:16;;;;;;;1999.90;999.90;;;;;;;21.00;42.88;95813.91;5049483;28;20029;-69
2022/08/11 01:28:09;;;;;;;1999.90;999.90;;;;;;;20.91;43.04;95812.53;5049803;28;20039;-70
2022/08/11 01:31:08;;;;;;;1999.90;999.90;;;;;;;20.84;43.47;95812.38;5049446;28;20106;-69
2022/08/11 01:34:19;;;;;;;1999.90;999.90;;;;;;;20.77;43.60;95808.38;5049650;28;20474;-70
2022/08/11 01:37:18;;;;;;;1999.90;999.90;;;;;;;20.70;43.66;95802.03;5049381;28;20052;-70
2022/08/11 01:39:58;;;;;;;1999.90;999.90;;;;;;;20.73;43.64;95809.44;5059781;28;20024;-70
2022/08/11 01:45:35;;;;;;;;;;;;;;;20.65;44.26;95811.19;5049429;28;20128;-70
2022/08/11 01:48:25;;;;;;;1999.90;999.90;;;;;;;20.70;44.09;95805.50;5049192;28;19956;-69
2022/08/11 01:50:56;;;;;;;1999.90;999.90;;;;;;;20.63;43.94;95805.38;5049920;28;20029;-70
2022/08/11 01:53:46;;;;;;;1999.90;999.90;;;;;;;20.72;43.56;95813.25;5049057;28;20036;-70
2022/08/11 01:56:17;;;;;;;1999.90;999.90;;;;;;;20.60;44.29;95803.34;5049149;28;20547;-69
2022/08/11 01:59:21;;;;;;;1999.90;999.90;;;;;;;20.54;44.51;95796.66;5053511;28;20066;-70
2022/08/11 02:02:18;;;;;;;1999.90;999.90;;;;;;;20.66;43.88;95809.28;5048485;28;20053;-70
2022/08/11 02:05:02;;;;;;;1999.90;999.90;;;;;;;20.63;43.80;95793.78;5049179;28;20033;-70
2022/08/11 02:07:48;;;;;;;1999.90;999.90;;;;;;;20.56;44.00;95793.59;5050079;28;20470;-70
2022/08/11 02:13:47;;;;;;;1999.90;999.90;;;;;;;20.56;44.25;95799.78;5055488;28;20068;-70
2022/08/11 02:16:33;;;;;;;1999.90;999.90;;;;;;;20.57;44.12;95805.97;5067311;28;20119;-70
2022/08/11 02:25:36;;;;;;;1999.90;999.90;;;;;;;20.33;44.66;95794.22;5054304;28;20139;-69
2022/08/11 02:28:30;;;;;;;1999.90;999.90;;;;;;;20.36;44.57;95796.19;5052179;28;20029;-70
2022/08/11 02:34:26;;;;;;;1999.90;999.90;;;;;;;20.07;45.46;95793.97;5052956;28;20044;-71
2022/08/11 02:36:59;;;;;;;1999.90;999.90;;;;;;;20.19;44.86;95788.47;5053302;28;20037;-70
2022/08/11 02:39:38;;;;;;;1999.90;999.90;;;;;;;20.06;45.75;95776.19;5051031;28;20389;-70
2022/08/11 02:42:22;;;;;;;1999.90;999.90;;;;;;;20.13;45.66;95789.88;5052922;28;20032;-70
2022/08/11 02:44:50;;;;;;;1999.90;999.90;;;;;;;20.07;45.98;95786.66;5052768;28;20470;-70
2022/08/11 02:47:31;;;;;;;1999.90;999.90;;;;;;;19.98;45.84;95776.03;5052766;28;20029;-70
2022/08/11 02:50:22;;;;;;;1999.90;999.90;;;;;;;20.01;46.27;95790.72;5065407;28;20495;-69
2022/08/11 02:53:05;;;;;;;1999.90;999.90;;;;;;;19.97;45.87;95787.97;5072586;28;20389;-70
2022/08/11 02:55:52;;;;;;;1999.90;999.90;;;;;;;20.14;45.55;95792.22;5055094;28;20036;-70
2022/08/11 02:59:49;;;;;;;1999.90;999.90;;;;;;;20.06;45.45;95790.47;5072107;28;20025;-69
2022/08/11 03:02:15;;;;;;;1999.90;999.90;;;;;;;20.10;45.57;95785.94;5052702;28;20055;-70
2022/08/11 03:05:03;;;;;;;1999.90;999.90;;;;;;;19.95;46.13;95781.31;5052913;28;20393;-70
2022/08/11 03:07:51;;;;;;;1999.90;999.90;;;;;;;19.98;45.94;95791.44;5052640;28;20456;-70
2022/08/11 03:10:41;;;;;;;1999.90;999.90;;;;;;;19.98;46.02;95794.91;5051856;28;20631;-71
2022/08/11 03:16:45;;;;;;;1999.90;999.90;;;;;;;19.94;45.92;95795.97;5052190;28;20075;-70
2022/08/11 03:19:41;;;;;;;1999.90;999.90;;;;;;;19.79;46.52;95786.72;5051042;28;20017;-70
2022/08/11 03:22:22;;;;;;;1999.90;999.90;;;;;;;19.62;46.92;95784.34;5052123;28;20056;-69
2022/08/11 03:24:59;;;;;;;1999.90;999.90;;;;;;;19.57;47.15;95776.47;5060873;28;20032;-70
2022/08/11 03:27:50;;;;;;;1999.90;999.90;;;;;;;19.67;46.59;95782.19;5056619;28;20033;-69
2022/08/11 03:30:22;;;;;;;1999.90;999.90;;;;;;;19.65;47.20;95791.75;5051611;28;20035;-70
2022/08/11 03:35:59;;;;;;;1999.90;999.90;;;;;;;19.79;46.31;95780.53;5067162;28;20393;-69
2022/08/11 03:38:31;;;;;;;1999.90;999.90;;;;;;;19.77;46.21;95775.50;5063687;28;20033;-70
2022/08/11 03:44:17;;;;;;;1999.90;999.90;;;;;;;19.83;46.61;95789.50;5051533;28;20028;-70
2022/08/11 03:47:01;;;;;;;1999.90;999.90;;;;;;;19.67;46.82;95787.59;5058436;28;20021;-70
2022/08/11 03:49:53;;;;;;;1999.90;999.90;;;;;;;19.66;47.07;95785.22;5066914;28;20031;-70
2022/08/11 03:52:44;;;;;;;1999.90;999.90;;;;;;;19.60;47.00;95781.19;5051379;28;20485;-69
2022/08/11 03:55:25;;;;;;;1999.90;999.90;;;;;;;19.46;47.45;95781.59;5051444;28;20033;-69
2022/08/11 03:58:42;;;;;;;1999.90;999.90;;;;;;;19.43;47.61;95787.66;5051341;28;20086;-70
2022/08/11 04:01:36;;;;;;;1999.90;999.90;;;;;;;19.41;47.76;95788.03;5037822;28;20040;-70
2022/08/11 04:04:17;;;;;;;1999.90;999.90;;;;;;;19.43;47.90;95787.66;5051444;28;20126;-66
2022/08/11 04:07:11;;;;;;;1999.90;999.90;;;;;;;19.52;47.40;95792.91;5071038;28;20032;-66
2022/08/11 04:09:51;;;;;;;1999.90;999.90;;;;;;;19.45;47.55;95774.63;5064196;28;20029;-67
2022/08/11 04:12:51;;;;;;;1999.90;999.90;;;;;;;19.54;47.39;95783.34;5051034;28;20041;-66
2022/08/11 04:16:03;;;;;;;1999.90;999.90;;;;;;;19.59;47.39;95780.41;5053496;28;20437;-66
2022/08/11 04:18:50;;;;;;;1999.90;999.90;;;;;;;19.48;47.92;95777.41;5050671;28;20067;-82
2022/08/11 04:21:34;;;;;;;1999.90;999.90;;;;;;;19.34;48.14;95790.50;5054513;28;20489;-74
2022/08/11 04:24:37;;;;;;;1999.90;999.90;;;;;;;19.36;48.09;95782.09;5051523;28;20108;-74
2022/08/11 04:27:39;;;;;;;1999.90;999.90;;;;;;;19.36;48.13;95782.09;5050762;28;20029;-74
2022/08/11 04:30:16;;;;;;;1999.90;999.90;;;;;;;19.38;48.07;95771.72;5050576;28;20036;-76
2022/08/11 04:33:20;;;;;;;1999.90;999.90;;;;;;;19.44;47.98;95781.91;5061084;28;20078;-76
2022/08/11 04:36:08;;;;;;;1999.90;999.90;;;;;;;19.35;48.15;95786.72;5061671;28;20512;-77
2022/08/11 04:39:08;;;;;;;1999.90;999.90;;;;;;;19.47;48.03;95778.53;5051514;28;20025;-77
2022/08/11 04:45:28;;;;;;;1999.90;999.90;;;;;;;19.69;47.60;95779.91;5066592;28;20116;-74
2022/08/11 05:03:25;;;;;;;;;;;;;;;20.76;45.24;95798.69;5050726;28;20036;-75
2022/08/11 05:06:08;;;;;;;1999.90;999.90;;;;;;;20.92;45.15;95797.88;5055219;28;20419;-76
2022/08/11 05:08:51;;;;;;;1999.90;999.90;;;;;;;21.12;44.73;95802.16;5070762;28;20044;-75
2022/08/11 05:11:45;;;;;;;1999.90;999.90;;;;;;;21.33;44.44;95799.13;5057536;28;20462;-75
2022/08/11 05:36:53;;;;;;;1999.90;999.90;;;;;;;21.24;44.02;95793.09;5059796;28;20500;-73
2022/08/11 05:56:18;;;;;;;1999.90;999.90;;;;;;;20.61;45.03;95796.81;5073366;28;20031;-67
2022/08/11 05:58:48;;;;;;;1999.90;999.90;;;;;;;20.56;45.16;95782.78;5057386;28;20020;-67
2022/08/11 06:01:30;;;;;;;1999.90;999.90;;;;;;;21.03;44.23;95782.63;5049555;28;20089;-67
2022/08/11 06:04:15;;;;;;;;;;;;;;;20.87;44.68;95796.22;5054332;28;20027;-66
2022/08/11 06:06:55;;;;;;;1999.90;999.90;;;;;;;21.05;44.64;95796.59;5054692;28;19916;-67
2022/08/11 06:09:49;;;;;;;1999.90;999.90;;;;;;;21.17;43.94;95787.56;5052699;28;20039;-70
2022/08/11 06:12:28;;;;;;;1999.90;999.90;;;;;;;20.95;44.41;95789.84;5061686;28;20024;-67
2022/08/11 06:14:55;;;;;;;1999.90;999.90;;;;;;;21.22;43.82;95789.97;5068363;28;20027;-67
2022/08/11 06:17:32;;;;;;;1999.90;999.90;;;;;;;21.28;43.79;95789.34;5048375;28;20074;-69
2022/08/11 06:20:08;;;;;;;1999.90;999.90;;;;;;;21.62;44.50;95799.69;5049389;28;20064;-68
2022/08/11 06:22:34;;;;;;;1999.90;999.90;;;;;;;21.65;43.43;95788.91;5048342;28;20025;-70
2022/08/11 06:25:01;;;;;;;1999.90;999.90;;;;;;;22.09;42.74;95780.38;5049861;28;20025;-71
2022/08/11 06:27:30;;;;;;;1999.90;999.90;;;;;;;22.36;41.57;95794.00;5049804;28;20423;-66
2022/08/11 06:29:57;;;;;;;1999.90;999.90;;;;;;;22.25;41.01;95797.31;5059965;28;20025;-67
2022/08/11 06:32:30;;;;;;;1999.90;999.90;;;;;;;21.93;42.00;95794.03;5049288;28;20079;-66
2022/08/11 06:35:16;;;;;;;1999.90;999.90;;;;;;;21.46;42.87;95797.84;5051364;28;20024;-66
2022/08/11 06:38:01;;;;;;;1999.90;999.90;;;;;;;21.51;42.61;95802.19;5050083;28;20029;-66
2022/08/11 06:40:42;;;;;;;1999.90;999.90;;;;;;;21.83;42.36;95800.06;5054526;28;20194;-67
2022/08/11 06:43:16;;;;;;;1999.90;999.90;;;;;;;21.73;42.64;95801.44;5068123;28;20089;-68
2022/08/11 06:46:02;;;;;;;1999.90;999.90;;;;;;;22.08;41.94;95807.84;5058521;28;20040;-68
2022/08/11 06:48:31;;;;;;;1999.90;999.90;;;;;;;21.73;42.74;95790.59;5048479;28;20048;-68
2022/08/11 06:51:12;;;;;;;1999.90;999.90;;;;;;;22.03;42.06;95803.50;5048891;28;20057;-69
2022/08/11 06:53:56;;;;;;;1999.90;999.90;;;;;;;22.00;42.27;95798.78;5051992;28;20536;-68
2022/08/11 07:02:11;;;;;;;1999.90;999.90;;;;;;;22.04;42.51;95813.19;5057311;28;20048;-68
2022/08/11 07:04:44;;;;;;;1999.90;999.90;;;;;;;21.68;43.22;95807.13;5050799;28;20029;-68
2022/08/11 07:16:27;;;;;;;1999.90;999.90;;;;;;;22.12;42.36;95803.31;5057777;28;20094;-68
2022/08/11 07:30:18;;;;;;;1999.90;999.90;;;;;;;22.42;41.54;95787.91;5052542;28;20040;-67
2022/08/11 07:32:49;;;;;;;1999.90;999.90;;;;;;;22.24;42.59;95787.63;5051466;28;20017;-67
2022/08/11 07:35:19;;;;;;;1999.90;999.90;;;;;;;21.75;42.80;95787.53;5051945;28;20036;-68
2022/08/11 07:37:49;;;;;;;1999.90;999.90;;;;;;;22.42;41.84;95787.91;5052003;28;20112;-67
2022/08/11 07:40:21;;;;;;;1999.90;999.90;;;;;;;23.06;40.88;95788.03;5051309;28;20040;-67
2022/08/11 07:42:48;;;;;;;1999.90;999.90;;;;;;;23.02;40.14;95790.72;5051677;28;20036;-67
2022/08/11 07:53:29;;;;;;;1999.90;999.90;;;;;;;23.57;39.29;95782.06;5051176;28;20583;-67
2022/08/11 07:55:57;;;;;;;1999.90;999.90;;;;;;;23.07;40.28;95779.53;5050368;28;20382;-68
2022/08/11 08:17:56;;;;;;;1999.90;999.90;;;;;;;23.61;39.17;95786.38;5056166;28;20050;-67
2022/08/11 08:20:48;;;;;;;1999.90;999.90;;;;;;;23.82;38.82;95787.78;5050003;28;20474;-68
2022/08/11 08:23:14;;;;;;;1999.90;999.90;;;;;;;23.94;38.47;95773.91;5050504;28;20033;-67
2022/08/11 08:25:42;;;;;;;1999.90;999.90;;;;;;;24.31;38.37;95778.47;5058106;28;20456;-68
2022/08/11 08:28:15;;;;;;;1999.90;999.90;;;;;;;24.23;38.80;95779.59;5052243;28;20041;-68
2022/08/11 08:30:49;;;;;;;1999.90;999.90;;;;;;;24.30;38.96;95785.84;5063945;28;20120;-67
2022/08/11 08:33:20;;;;;;;1999.90;999.90;;;;;;;23.97;38.85;95794.13;5055116;28;20032;-67
2022/08/11 08:35:47;;;;;;;1999.90;999.90;;;;;;;23.83;38.93;95781.94;5051105;28;20606;-67
2022/08/11 08:38:13;;;;;;;1999.90;999.90;;;;;;;24.05;38.68;95782.16;5053090;28;20029;-67
2022/08/11 08:40:41;;;;;;;1999.90;999.90;;;;;;;24.26;38.43;95787.78;5050017;28;20037;-67
2022/08/11 08:43:09;;;;;;;1999.90;999.90;;;;;;;24.18;38.67;95790.81;5065063;28;20037;-67
2022/08/11 08:45:36;;;;;;;1999.90;999.90;;;;;;;23.48;40.21;95782.34;5050245;28;20111;-67
2022/08/11 08:48:10;;;;;;;1999.90;999.90;;;;;;;24.22;39.02;95789.69;5058452;28;20037;-67
2022/08/11 08:53:31;;;;;;;1999.90;999.90;;;;;;;23.90;39.62;95789.38;5049592;28;20067;-68
2022/08/11 08:56:01;;;;;;;1999.90;999.90;;;;;;;24.25;38.61;95797.06;5049573;28;20113;-67
2022/08/11 08:58:29;;;;;;;1999.90;999.90;;;;;;;24.43;38.57;95786.38;5062220;28;20021;-68
2022/08/11 09:00:58;;;;;;;1999.90;999.90;;;;;;;24.11;39.77;95784.16;5049460;28;20120;-68
2022/08/11 09:03:25;;;;;;;1999.90;999.90;;;;;;;24.50;38.34;95780.19;5059494;28;20024;-67
2022/08/11 09:05:53;;;;;;;1999.90;999.90;;;;;;;24.28;39.30;95776.53;5070288;28;20017;-68
2022/08/11 09:08:20;;;;;;;1999.90;999.90;;;;;;;24.87;38.22;95782.75;5069052;28;20102;-67
2022/08/11 09:11:48;;;;;;;1999.90;999.90;;;;;;;24.23;38.74;95783.09;5069082;28;20074;-70
2022/08/11 09:13:39;;;;;;;1999.90;999.90;;;;;;;25.20;37.31;95781.03;5050948;28;20091;-70
2022/08/11 09:16:08;;;;;;;1999.90;999.90;;;;;;;25.09;37.55;95789.13;5048956;28;20048;-70
2022/08/11 09:18:34;;;;;;;1999.90;999.90;;;;;;;25.04;37.26;95781.31;5059754;28;20028;-70
2022/08/11 09:21:02;;;;;;;1999.90;999.90;;;;;;;25.78;36.40;95791.72;5068632;28;20043;-70
2022/08/11 09:28:59;;;;;;;1999.90;999.90;;;;;;;24.84;37.33;95786.25;5050291;28;20120;-69
2022/08/11 09:31:25;;;;;;;1999.90;999.90;;;;;;;24.89;37.19;95778.50;5052232;28;20045;-69
2022/08/11 09:33:53;;;;;;;1999.90;999.90;;;;;;;24.82;37.47;95786.63;5061536;28;20508;-69
2022/08/11 09:41:49;;;;;;;1999.90;999.90;;;;;;;24.93;37.09;95788.63;5053208;28;20151;-69
2022/08/11 09:47:01;;;;;;;1999.90;999.90;;;;;;;25.64;37.56;95784.28;5056053;28;20397;-70
2022/08/11 09:49:28;;;;;;;1999.90;999.90;;;;;;;25.95;35.19;95795.66;5048792;28;20021;-71
2022/08/11 09:51:55;;;;;;;1999.90;999.90;;;;;;;25.79;35.54;95790.56;5057098;28;20037;-71
2022/08/11 09:54:22;;;;;;;1999.90;999.90;;;;;;;25.72;35.35;95793.25;5047811;28;20025;-71
2022/08/11 09:59:32;;;;;;;1999.90;999.90;;;;;;;26.02;34.31;95778.53;5049904;28;20036;-68
2022/08/11 10:02:00;;;;;;;1999.90;999.90;;;;;;;25.98;34.33;95777.75;5053073;28;20029;-69
2022/08/11 10:04:34;;;;;;;1999.90;999.90;;;;;;;26.07;33.91;95784.38;5053108;28;20028;-71
2022/08/11 10:07:02;;;;;;;1999.90;999.90;;;;;;;25.61;34.10;95768.69;5047643;28;20029;-70
2022/08/11 10:09:48;;;;;;;1999.90;999.90;;;;;;;25.94;33.71;95777.72;5049368;28;20029;-70
2022/08/11 10:12:16;;;;;;;1999.90;999.90;;;;;;;25.85;34.19;95785.53;5049126;28;20025;-68
2022/08/11 10:17:35;;;;;;;1999.90;999.90;;;;;;;26.38;33.76;95765.69;5054272;28;21834;-69
2022/08/11 10:20:06;;;;;;;1999.90;999.90;;;;;;;26.64;33.85;95746.19;5069171;28;20026;-66
2022/08/11 10:28:23;;;;;;;1999.90;999.90;;;;;;;26.53;32.40;95731.00;5047344;28;20061;-66
2022/08/11 10:36:19;;;;;;;1999.90;999.90;;;;;;;26.73;32.44;95710.31;5051788;28;20036;-66
2022/08/11 10:38:51;;;;;;;1999.90;999.90;;;;;;;27.08;31.81;95733.22;5052348;28;20460;-66
2022/08/11 10:44:06;;;;;;;1999.90;999.90;;;;;;;26.68;32.37;95740.72;5052496;28;20385;-66
2022/08/11 10:49:17;;;;;;;1999.90;999.90;;;;;;;26.64;32.24;95686.16;5052715;28;20064;-66
2022/08/11 11:00:01;;;;;;;1999.90;999.90;;;;;;;27.12;32.08;95725.78;5072345;28;20120;-66
2022/08/11 11:02:28;;;;;;;1999.90;999.90;;;;;;;27.02;32.19;95730.06;5052725;28;20024;-66
2022/08/11 11:05:08;;;;;;;1999.90;999.90;;;;;;;27.62;31.12;95731.75;5052431;28;20025;-66
2022/08/11 11:07:42;;;;;;;1999.90;999.90;;;;;;;28.02;30.83;95732.31;5051704;28;20073;-66
2022/08/11 11:10:08;;;;;;;1999.90;999.90;;;;;;;27.08;31.27;95723.09;5056254;28;20549;-65
2022/08/11 11:18:19;;;;;;;1999.90;999.90;;;;;;;27.22;31.07;95733.16;5072242;28;20081;-72
2022/08/11 11:21:13;;;;;;;1999.90;999.90;;;;;;;27.88;31.04;95738.66;5070685;28;20029;-73
2022/08/11 11:24:16;;;;;;;1999.90;999.90;;;;;;;28.45;30.09;95730.00;5070237;28;20126;-73
2022/08/11 11:26:59;;;;;;;1999.90;999.90;;;;;;;28.17;29.77;95714.59;5070939;28;20529;-73
2022/08/11 11:29:53;;;;;;;1999.90;999.90;;;;;;;27.70;30.44;95724.31;5069571;28;20093;-74
2022/08/11 11:32:34;;;;;;;1999.90;999.90;;;;;;;27.61;30.62;95726.72;5068357;28;20043;-72
2022/08/11 11:35:14;;;;;;;1999.90;999.90;;;;;;;27.44;30.99;95715.50;5070485;28;20028;-71
2022/08/11 11:37:41;;;;;;;1999.90;999.90;;;;;;;27.70;31.18;95713.38;5071793;28;20169;-71
2022/08/11 11:40:10;;;;;;;1999.90;999.90;;;;;;;27.57;30.89;95715.78;5055942;28;20039;-71
2022/08/11 11:42:39;;;;;;;1999.90;999.90;;;;;;;27.62;30.41;95706.41;5050938;28;20031;-73
2022/08/11 11:45:05;;;;;;;1999.90;999.90;;;;;;;28.00;30.60;95710.06;5054110;28;20039;-71
2022/08/11 11:47:32;;;;;;;1999.90;999.90;;;;;;;27.43;31.22;95700.25;5050325;28;20040;-71
2022/08/11 11:49:58;;;;;;;1999.90;999.90;;;;;;;27.81;30.11;95716.06;5052371;28;20040;-70
2022/08/11 11:52:25;;;;;;;1999.90;999.90;;;;;;;27.98;29.75;95702.25;5049163;28;20036;-72
2022/08/11 11:54:54;;;;;;;1999.90;999.90;;;;;;;28.01;30.16;95689.75;5052269;28;20025;-70
2022/08/11 12:02:54;;;;;;;1999.90;999.90;;;;;;;28.47;29.67;95705.75;5051421;28;20055;-70
2022/08/11 12:05:21;;;;;;;1999.90;999.90;;;;;;;28.12;29.97;95701.34;5056863;28;20029;-70
2022/08/11 12:10:31;;;;;;;1999.90;999.90;;;;;;;28.15;29.62;95703.28;5051564;28;20082;-72
2022/08/11 12:15:47;;;;;;;1999.90;999.90;;;;;;;28.34;28.82;95696.50;5051604;28;20109;-71
2022/08/11 12:18:14;;;;;;;1999.90;999.90;;;;;;;28.72;28.74;95693.78;5052793;28;20025;-71
2022/08/11 12:20:41;;;;;;;1999.90;999.90;;;;;;;28.48;29.14;95688.16;5053787;28;20037;-71
2022/08/11 12:28:35;;;;;;;1999.90;999.90;;;;;;;28.09;28.79;95687.69;5051470;28;20588;-72
2022/08/11 12:31:03;;;;;;;1999.90;999.90;;;;;;;28.08;29.17;95688.91;5052070;28;20021;-72
2022/08/11 12:33:28;;;;;;;1999.90;999.90;;;;;;;28.44;29.08;95686.63;5049328;28;20107;-73
2022/08/11 12:35:59;;;;;;;1999.90;999.90;;;;;;;28.67;27.37;95672.31;5066336;28;20159;-72
2022/08/11 12:38:25;;;;;;;1999.90;999.90;;;;;;;28.43;28.05;95644.81;5069621;28;20493;-73
2022/08/11 12:46:23;;;;;;;1999.90;999.90;;;;;;;28.73;28.39;95670.69;5067926;28;20093;-74
2022/08/11 12:54:40;;;;;;;1999.90;999.90;;;;;;;28.61;28.57;95665.72;5070531;28;19920;-73
2022/08/11 13:05:31;;;;;;;1999.90;999.90;;;;;;;29.44;26.94;95667.03;5053003;28;20056;-72
2022/08/11 13:07:59;;;;;;;1999.90;999.90;;;;;;;29.74;26.66;95655.28;5049117;28;20029;-72
2022/08/11 13:13:13;;;;;;;1999.90;999.90;;;;;;;29.48;27.04;95647.78;5050003;28;20094;-72
2022/08/11 13:15:39;;;;;;;1999.90;999.90;;;;;;;29.08;27.35;95649.56;5049993;28;20079;-73
2022/08/11 13:18:07;;;;;;;1999.90;999.90;;;;;;;29.20;27.14;95643.50;5050465;28;20524;-73
2022/08/11 13:20:34;;;;;;;1999.90;999.90;;;;;;;29.71;26.22;95645.13;5060758;28;20032;-72
2022/08/11 13:23:00;;;;;;;1999.90;999.90;;;;;;;29.58;26.65;95648.84;5068159;28;20150;-73
2022/08/11 13:25:30;;;;;;;1999.90;999.90;;;;;;;29.36;27.03;95657.38;5048973;28;20021;-74
2022/08/11 13:27:58;;;;;;;1999.90;999.90;;;;;;;29.59;26.37;95656.69;5048668;28;20029;-73
2022/08/11 13:33:18;;;;;;;1999.90;999.90;;;;;;;29.68;25.86;95650.66;5049842;28;20442;-73
2022/08/11 13:35:49;;;;;;;1999.90;999.90;;;;;;;29.48;26.63;95634.88;5059467;28;20107;-73
2022/08/11 13:38:16;;;;;;;1999.90;999.90;;;;;;;29.42;26.53;95654.94;5059711;28;20060;-73
2022/08/11 13:40:42;;;;;;;1999.90;999.90;;;;;;;29.73;25.67;95644.69;5053738;28;20502;-73
2022/08/11 13:43:08;;;;;;;1999.90;999.90;;;;;;;29.72;25.90;95638.44;5069664;28;20047;-74
2022/08/11 13:45:35;;;;;;;1999.90;999.90;;;;;;;29.59;25.99;95639.47;5066275;28;20032;-74
2022/08/11 13:48:05;;;;;;;1999.90;999.90;;;;;;;29.32;26.20;95642.16;5049648;28;20021;-73
2022/08/11 13:53:19;;;;;;;1999.90;999.90;;;;;;;29.93;25.66;95628.31;5049882;28;20071;-73
2022/08/11 13:55:46;;;;;;;1999.90;999.90;;;;;;;29.89;25.25;95635.81;5049831;28;20036;-74
2022/08/11 13:58:12;;;;;;;1999.90;999.90;;;;;;;30.08;25.44;95632.34;5049300;28;20025;-75
2022/08/11 14:00:40;;;;;;;1999.90;999.90;;;;;;;29.78;25.52;95641.47;5049732;28;20025;-73
2022/08/11 14:03:10;;;;;;;1999.90;999.90;;;;;;;30.29;25.07;95634.75;5066181;28;20051;-74
2022/08/11 14:05:45;;;;;;;1999.90;999.90;;;;;;;29.71;26.14;95641.59;5059070;28;20078;-74
2022/08/11 14:08:14;;;;;;;1999.90;999.90;;;;;;;30.13;25.63;95626.41;5047859;28;20086;-73
2022/08/11 14:10:41;;;;;;;1999.90;999.90;;;;;;;30.25;24.92;95636.00;5049343;28;20166;-74
2022/08/11 14:16:00;;;;;;;1999.90;999.90;;;;;;;30.23;24.67;95633.69;5050139;28;20202;-74
2022/08/11 14:18:29;;;;;;;1999.90;999.90;;;;;;;30.10;24.82;95623.69;5069542;28;20031;-74
2022/08/11 14:23:54;;;;;;;1999.90;999.90;;;;;;;29.36;25.34;95640.94;5068701;28;20039;-74
2022/08/11 14:26:25;;;;;;;1999.90;999.90;;;;;;;29.77;24.46;95629.75;5060216;28;20032;-70
2022/08/11 14:29:07;;;;;;;1999.90;999.90;;;;;;;29.97;26.26;95623.53;5047349;28;20078;-69
2022/08/11 14:31:37;;;;;;;1999.90;999.90;;;;;;;30.26;25.45;95623.84;5050501;28;20082;-71
2022/08/11 14:34:06;;;;;;;1999.90;999.90;;;;;;;29.74;25.20;95627.06;5052035;28;20025;-71
2022/08/11 14:36:35;;;;;;;1999.90;999.90;;;;;;;29.98;25.24;95625.09;5049943;28;20029;-72
2022/08/11 14:39:04;;;;;;;1999.90;999.90;;;;;;;30.34;25.70;95627.22;5047748;28;20021;-71
2022/08/11 14:47:04;;;;;;;1999.90;999.90;;;;;;;31.01;24.01;95625.88;5048187;28;20117;-73
2022/08/11 14:49:31;;;;;;;1999.90;999.90;;;;;;;31.58;23.34;95619.16;5046999;28;20393;-73
2022/08/11 14:51:57;;;;;;;1999.90;999.90;;;;;;;31.45;23.17;95610.03;5050044;28;20290;-72
2022/08/11 14:57:13;;;;;;;1999.90;999.90;;;;;;;30.84;23.28;95618.81;5065013;28;20040;-73
2022/08/11 14:59:39;;;;;;;1999.90;999.90;;;;;;;30.72;22.68;95605.72;5068083;28;20029;-74
2022/08/11 15:04:50;;;;;;;1999.90;999.90;;;;;;;31.59;22.68;95614.44;5060466;28;20039;-77
2022/08/11 15:07:16;;;;;;;1999.90;999.90;;;;;;;31.45;22.17;95604.53;5046823;28;20397;-73
2022/08/11 15:09:43;;;;;;;1999.90;999.90;;;;;;;32.06;22.27;95600.31;5062063;28;20041;-74
2022/08/11 15:12:15;;;;;;;1999.90;999.90;;;;;;;31.80;22.63;95607.63;5060836;28;20033;-75
2022/08/11 15:17:32;;;;;;;1999.90;999.90;;;;;;;31.38;22.18;95614.91;5052609;28;20397;-75
2022/08/11 15:25:29;;;;;;;1999.90;999.90;;;;;;;31.75;21.73;95605.41;5063313;28;20039;-75
2022/08/11 15:39:02;;;;;;;1999.90;999.90;;;;;;;32.25;21.67;95606.91;5059677;28;20034;-77
2022/08/11 15:47:07;;;;;;;1999.90;999.90;;;;;;;30.37;24.28;95596.97;5055240;28;20370;-76
2022/08/11 15:49:38;;;;;;;1999.90;999.90;;;;;;;30.45;23.44;95575.63;5064913;28;20021;-76
2022/08/11 15:52:09;;;;;;;1999.90;999.90;;;;;;;30.79;23.13;95600.09;5064905;28;20029;-77
2022/08/11 15:54:40;;;;;;;1999.90;999.90;;;;;;;31.12;22.74;95587.22;5060111;28;20029;-77
2022/08/11 15:57:07;;;;;;;1999.90;999.90;;;;;;;30.34;23.15;95569.59;5056049;28;20032;-76
2022/08/11 16:04:51;;;;;;;1999.90;999.90;;;;;;;30.04;23.97;95585.00;5050599;28;20120;-77
2022/08/11 16:07:25;;;;;;;1999.90;999.90;;;;;;;29.46;23.60;95587.16;5066166;28;20024;-76
2022/08/11 16:09:56;;;;;;;1999.90;999.90;;;;;;;28.96;24.56;95564.00;5052862;28;20028;-71
2022/08/11 16:12:24;;;;;;;;;;;;;;;29.46;23.90;95593.41;5051578;28;20025;-70
2022/08/11 16:17:44;;;;;;;1999.90;999.90;;;;;;;29.27;23.51;95588.59;5061052;28;20112;-70
2022/08/11 16:20:13;;;;;;;1999.90;999.90;;;;;;;29.22;23.45;95589.84;5054015;28;20084;-70